sensor_id;sensor_type;location;lat;lon;timestamp;P1;durP1;ratioP1;P2;durP2;ratioP2
56285;SDS011;42191;47.562;9.686;2023-06-04T00:01:58;38.22;;;35.53;;
56285;SDS011;42191;47.562;9.686;2023-06-04T00:04:25;37.00;;;34.58;;
56285;SDS011;42191;47.562;9.686;2023-06-04T00:06:51;36.97;;;34.38;;
56285;SDS011;42191;47.562;9.686;2023-06-04T00:09:17;36.45;;;33.85;;
56285;SDS011;42191;47.562;9.686;2023-06-04T00:11:43;38.97;;;36.33;;
56285;SDS011;42191;47.562;9.686;2023-06-04T00:14:10;35.78;;;33.47;;
56285;SDS011;42191;47.562;9.686;2023-06-04T00:16:37;37.03;;;34.42;;
56285;SDS011;42191;47.562;9.686;2023-06-04T00:19:03;37.67;;;35.03;;
56285;SDS011;42191;47.562;9.686;2023-06-04T00:21:29;36.58;;;34.08;;
56285;SDS011;42191;47.562;9.686;2023-06-04T00:23:55;35.67;;;33.28;;
56285;SDS011;42191;47.562;9.686;2023-06-04T00:26:21;37.85;;;35.28;;
56285;SDS011;42191;47.562;9.686;2023-06-04T00:28:47;36.60;;;34.20;;
56285;SDS011;42191;47.562;9.686;2023-06-04T00:31:14;37.03;;;34.55;;
56285;SDS011;42191;47.562;9.686;2023-06-04T00:33:40;37.60;;;34.75;;
56285;SDS011;42191;47.562;9.686;2023-06-04T00:36:07;37.25;;;34.72;;
56285;SDS011;42191;47.562;9.686;2023-06-04T00:38:33;36.83;;;34.42;;
56285;SDS011;42191;47.562;9.686;2023-06-04T00:40:59;36.55;;;34.10;;
56285;SDS011;42191;47.562;9.686;2023-06-04T00:43:25;37.03;;;34.42;;
56285;SDS011;42191;47.562;9.686;2023-06-04T00:45:52;36.10;;;33.58;;
56285;SDS011;42191;47.562;9.686;2023-06-04T00:48:19;37.22;;;34.70;;
56285;SDS011;42191;47.562;9.686;2023-06-04T00:50:46;37.15;;;34.60;;
56285;SDS011;42191;47.562;9.686;2023-06-04T00:53:13;36.70;;;34.20;;
56285;SDS011;42191;47.562;9.686;2023-06-04T00:55:40;38.03;;;35.35;;
56285;SDS011;42191;47.562;9.686;2023-06-04T00:58:06;37.95;;;35.25;;
56285;SDS011;42191;47.562;9.686;2023-06-04T01:00:34;39.35;;;36.75;;
56285;SDS011;42191;47.562;9.686;2023-06-04T01:03:03;35.55;;;33.15;;
56285;SDS011;42191;47.562;9.686;2023-06-04T01:05:35;37.30;;;34.80;;
56285;SDS011;42191;47.562;9.686;2023-06-04T01:08:07;38.13;;;35.58;;
56285;SDS011;42191;47.562;9.686;2023-06-04T01:10:34;38.15;;;35.35;;
56285;SDS011;42191;47.562;9.686;2023-06-04T01:13:00;37.40;;;34.88;;
56285;SDS011;42191;47.562;9.686;2023-06-04T01:15:27;36.67;;;34.28;;
56285;SDS011;42191;47.562;9.686;2023-06-04T01:17:56;40.58;;;37.78;;
56285;SDS011;42191;47.562;9.686;2023-06-04T01:20:40;37.25;;;34.75;;
56285;SDS011;42191;47.562;9.686;2023-06-04T01:23:19;37.80;;;35.28;;
56285;SDS011;42191;47.562;9.686;2023-06-04T01:25:49;38.03;;;35.10;;
56285;SDS011;42191;47.562;9.686;2023-06-04T01:28:16;37.15;;;34.72;;
56285;SDS011;42191;47.562;9.686;2023-06-04T01:30:43;35.60;;;33.20;;
56285;SDS011;42191;47.562;9.686;2023-06-04T01:33:11;38.90;;;36.33;;
56285;SDS011;42191;47.562;9.686;2023-06-04T01:35:38;35.90;;;33.53;;
56285;SDS011;42191;47.562;9.686;2023-06-04T01:38:05;39.00;;;36.30;;
56285;SDS011;42191;47.562;9.686;2023-06-04T01:40:31;37.17;;;34.67;;
56285;SDS011;42191;47.562;9.686;2023-06-04T01:42:58;38.70;;;35.17;;
56285;SDS011;42191;47.562;9.686;2023-06-04T01:45:25;38.33;;;35.60;;
56285;SDS011;42191;47.562;9.686;2023-06-04T01:47:52;37.83;;;35.08;;
56285;SDS011;42191;47.562;9.686;2023-06-04T01:50:19;35.63;;;33.17;;
56285;SDS011;42191;47.562;9.686;2023-06-04T01:52:46;38.55;;;35.60;;
56285;SDS011;42191;47.562;9.686;2023-06-04T01:55:13;37.95;;;35.22;;
56285;SDS011;42191;47.562;9.686;2023-06-04T01:57:44;38.20;;;35.65;;
56285;SDS011;42191;47.562;9.686;2023-06-04T02:00:11;39.15;;;36.42;;
56285;SDS011;42191;47.562;9.686;2023-06-04T02:02:38;39.45;;;36.47;;
56285;SDS011;42191;47.562;9.686;2023-06-04T02:05:09;38.13;;;35.58;;
56285;SDS011;42191;47.562;9.686;2023-06-04T02:07:39;38.85;;;36.22;;
56285;SDS011;42191;47.562;9.686;2023-06-04T02:10:07;39.10;;;36.40;;
56285;SDS011;42191;47.562;9.686;2023-06-04T02:12:36;38.40;;;35.90;;
56285;SDS011;42191;47.562;9.686;2023-06-04T02:15:04;38.97;;;36.30;;
56285;SDS011;42191;47.562;9.686;2023-06-04T02:17:30;38.28;;;35.58;;
56285;SDS011;42191;47.562;9.686;2023-06-04T02:20:02;37.50;;;35.00;;
56285;SDS011;42191;47.562;9.686;2023-06-04T02:22:29;39.63;;;36.92;;
56285;SDS011;42191;47.562;9.686;2023-06-04T02:24:55;37.00;;;34.45;;
56285;SDS011;42191;47.562;9.686;2023-06-04T02:27:21;38.08;;;35.47;;
56285;SDS011;42191;47.562;9.686;2023-06-04T02:29:47;37.80;;;35.15;;
56285;SDS011;42191;47.562;9.686;2023-06-04T02:32:13;37.38;;;34.80;;
56285;SDS011;42191;47.562;9.686;2023-06-04T02:34:40;36.70;;;34.30;;
56285;SDS011;42191;47.562;9.686;2023-06-04T02:37:06;38.00;;;35.42;;
56285;SDS011;42191;47.562;9.686;2023-06-04T02:39:32;38.65;;;35.85;;
56285;SDS011;42191;47.562;9.686;2023-06-04T02:41:58;35.53;;;32.95;;
56285;SDS011;42191;47.562;9.686;2023-06-04T02:44:24;37.40;;;34.92;;
56285;SDS011;42191;47.562;9.686;2023-06-04T02:46:50;37.55;;;34.85;;
56285;SDS011;42191;47.562;9.686;2023-06-04T02:49:16;37.15;;;34.65;;
56285;SDS011;42191;47.562;9.686;2023-06-04T02:51:43;39.42;;;36.72;;
56285;SDS011;42191;47.562;9.686;2023-06-04T02:54:09;39.50;;;36.75;;
56285;SDS011;42191;47.562;9.686;2023-06-04T02:56:37;38.47;;;35.88;;
56285;SDS011;42191;47.562;9.686;2023-06-04T02:59:03;39.20;;;36.50;;
56285;SDS011;42191;47.562;9.686;2023-06-04T03:01:30;38.38;;;35.78;;
56285;SDS011;42191;47.562;9.686;2023-06-04T03:03:56;38.83;;;36.20;;
56285;SDS011;42191;47.562;9.686;2023-06-04T03:06:22;38.15;;;35.55;;
56285;SDS011;42191;47.562;9.686;2023-06-04T03:08:49;38.90;;;36.20;;
56285;SDS011;42191;47.562;9.686;2023-06-04T03:11:17;38.47;;;35.83;;
56285;SDS011;42191;47.562;9.686;2023-06-04T03:13:47;36.53;;;34.05;;
56285;SDS011;42191;47.562;9.686;2023-06-04T03:16:13;38.40;;;35.70;;
56285;SDS011;42191;47.562;9.686;2023-06-04T03:18:40;37.88;;;35.17;;
56285;SDS011;42191;47.562;9.686;2023-06-04T03:21:07;39.08;;;36.38;;
56285;SDS011;42191;47.562;9.686;2023-06-04T03:23:34;38.15;;;35.55;;
56285;SDS011;42191;47.562;9.686;2023-06-04T03:26:01;38.88;;;36.08;;
56285;SDS011;42191;47.562;9.686;2023-06-04T03:28:27;36.78;;;34.22;;
56285;SDS011;42191;47.562;9.686;2023-06-04T03:30:54;37.40;;;34.88;;
56285;SDS011;42191;47.562;9.686;2023-06-04T03:33:20;37.80;;;35.10;;
56285;SDS011;42191;47.562;9.686;2023-06-04T03:35:46;36.72;;;34.17;;
56285;SDS011;42191;47.562;9.686;2023-06-04T03:38:13;38.38;;;35.78;;
56285;SDS011;42191;47.562;9.686;2023-06-04T03:40:40;37.92;;;35.08;;
56285;SDS011;42191;47.562;9.686;2023-06-04T03:43:06;38.75;;;35.92;;
56285;SDS011;42191;47.562;9.686;2023-06-04T03:45:32;38.67;;;36.08;;
56285;SDS011;42191;47.562;9.686;2023-06-04T03:47:58;37.33;;;34.72;;
56285;SDS011;42191;47.562;9.686;2023-06-04T03:50:24;39.03;;;36.42;;
56285;SDS011;42191;47.562;9.686;2023-06-04T03:52:51;37.40;;;34.85;;
56285;SDS011;42191;47.562;9.686;2023-06-04T03:55:17;36.03;;;33.50;;
56285;SDS011;42191;47.562;9.686;2023-06-04T03:57:43;38.58;;;35.83;;
56285;SDS011;42191;47.562;9.686;2023-06-04T04:00:10;37.60;;;35.10;;
56285;SDS011;42191;47.562;9.686;2023-06-04T04:02:37;36.58;;;34.13;;
56285;SDS011;42191;47.562;9.686;2023-06-04T04:05:07;37.25;;;34.70;;
56285;SDS011;42191;47.562;9.686;2023-06-04T04:07:34;38.30;;;35.80;;
56285;SDS011;42191;47.562;9.686;2023-06-04T04:10:00;38.38;;;35.72;;
56285;SDS011;42191;47.562;9.686;2023-06-04T04:12:26;37.95;;;35.47;;
56285;SDS011;42191;47.562;9.686;2023-06-04T04:14:52;38.38;;;35.78;;
56285;SDS011;42191;47.562;9.686;2023-06-04T04:17:19;38.80;;;36.15;;
56285;SDS011;42191;47.562;9.686;2023-06-04T04:19:45;39.13;;;36.25;;
56285;SDS011;42191;47.562;9.686;2023-06-04T04:22:11;38.08;;;35.42;;
56285;SDS011;42191;47.562;9.686;2023-06-04T04:24:38;37.38;;;34.63;;
56285;SDS011;42191;47.562;9.686;2023-06-04T04:27:04;39.15;;;36.25;;
56285;SDS011;42191;47.562;9.686;2023-06-04T04:29:31;39.00;;;36.35;;
56285;SDS011;42191;47.562;9.686;2023-06-04T04:32:01;39.20;;;36.60;;
56285;SDS011;42191;47.562;9.686;2023-06-04T04:34:35;36.67;;;34.28;;
56285;SDS011;42191;47.562;9.686;2023-06-04T04:37:02;37.42;;;34.83;;
56285;SDS011;42191;47.562;9.686;2023-06-04T04:39:29;38.15;;;35.55;;
56285;SDS011;42191;47.562;9.686;2023-06-04T04:41:55;35.28;;;32.75;;
56285;SDS011;42191;47.562;9.686;2023-06-04T04:44:21;37.90;;;35.30;;
56285;SDS011;42191;47.562;9.686;2023-06-04T04:46:50;39.08;;;36.45;;
56285;SDS011;42191;47.562;9.686;2023-06-04T04:49:16;37.08;;;34.40;;
56285;SDS011;42191;47.562;9.686;2023-06-04T04:51:42;38.15;;;35.53;;
56285;SDS011;42191;47.562;9.686;2023-06-04T04:54:08;38.20;;;35.55;;
56285;SDS011;42191;47.562;9.686;2023-06-04T04:56:34;37.72;;;35.13;;
56285;SDS011;42191;47.562;9.686;2023-06-04T04:59:01;38.05;;;35.35;;
56285;SDS011;42191;47.562;9.686;2023-06-04T05:01:27;38.70;;;36.03;;
56285;SDS011;42191;47.562;9.686;2023-06-04T05:03:53;36.15;;;33.67;;
56285;SDS011;42191;47.562;9.686;2023-06-04T05:06:19;34.63;;;32.25;;
56285;SDS011;42191;47.562;9.686;2023-06-04T05:08:46;37.97;;;35.38;;
56285;SDS011;42191;47.562;9.686;2023-06-04T05:11:12;37.80;;;35.20;;
56285;SDS011;42191;47.562;9.686;2023-06-04T05:13:38;37.17;;;34.47;;
56285;SDS011;42191;47.562;9.686;2023-06-04T05:16:06;37.20;;;34.65;;
56285;SDS011;42191;47.562;9.686;2023-06-04T05:18:33;38.65;;;36.03;;
56285;SDS011;42191;47.562;9.686;2023-06-04T05:20:59;34.60;;;32.22;;
56285;SDS011;42191;47.562;9.686;2023-06-04T05:23:27;37.53;;;34.67;;
56285;SDS011;42191;47.562;9.686;2023-06-04T05:25:55;37.88;;;35.28;;
56285;SDS011;42191;47.562;9.686;2023-06-04T05:28:21;35.75;;;33.42;;
56285;SDS011;42191;47.562;9.686;2023-06-04T05:30:51;37.00;;;34.40;;
56285;SDS011;42191;47.562;9.686;2023-06-04T05:33:23;35.00;;;32.60;;
56285;SDS011;42191;47.562;9.686;2023-06-04T05:35:50;36.45;;;33.72;;
56285;SDS011;42191;47.562;9.686;2023-06-04T05:38:22;34.65;;;32.38;;
56285;SDS011;42191;47.562;9.686;2023-06-04T05:40:50;37.13;;;34.55;;
56285;SDS011;42191;47.562;9.686;2023-06-04T05:43:20;37.13;;;34.63;;
56285;SDS011;42191;47.562;9.686;2023-06-04T05:45:46;38.17;;;35.47;;
56285;SDS011;42191;47.562;9.686;2023-06-04T05:48:13;37.13;;;34.63;;
56285;SDS011;42191;47.562;9.686;2023-06-04T05:50:39;35.53;;;33.22;;
56285;SDS011;42191;47.562;9.686;2023-06-04T05:53:05;37.42;;;34.83;;
56285;SDS011;42191;47.562;9.686;2023-06-04T05:55:31;38.25;;;35.63;;
56285;SDS011;42191;47.562;9.686;2023-06-04T05:57:57;36.78;;;34.28;;
56285;SDS011;42191;47.562;9.686;2023-06-04T06:00:24;37.53;;;34.65;;
56285;SDS011;42191;47.562;9.686;2023-06-04T06:02:50;37.83;;;35.17;;
56285;SDS011;42191;47.562;9.686;2023-06-04T06:05:17;37.30;;;34.80;;
56285;SDS011;42191;47.562;9.686;2023-06-04T06:07:44;36.88;;;34.20;;
56285;SDS011;42191;47.562;9.686;2023-06-04T06:10:11;37.67;;;35.13;;
56285;SDS011;42191;47.562;9.686;2023-06-04T06:12:38;36.92;;;34.38;;
56285;SDS011;42191;47.562;9.686;2023-06-04T06:15:05;36.50;;;34.00;;
56285;SDS011;42191;47.562;9.686;2023-06-04T06:17:31;36.22;;;33.83;;
56285;SDS011;42191;47.562;9.686;2023-06-04T06:19:58;36.70;;;34.30;;
56285;SDS011;42191;47.562;9.686;2023-06-04T06:22:24;36.15;;;33.67;;
56285;SDS011;42191;47.562;9.686;2023-06-04T06:24:50;38.00;;;35.40;;
56285;SDS011;42191;47.562;9.686;2023-06-04T06:27:16;37.17;;;34.38;;
56285;SDS011;42191;47.562;9.686;2023-06-04T06:29:43;35.90;;;33.58;;
56285;SDS011;42191;47.562;9.686;2023-06-04T06:32:09;37.92;;;35.00;;
56285;SDS011;42191;47.562;9.686;2023-06-04T06:34:36;36.38;;;33.90;;
56285;SDS011;42191;47.562;9.686;2023-06-04T06:37:06;38.20;;;35.63;;
56285;SDS011;42191;47.562;9.686;2023-06-04T06:39:32;36.45;;;33.95;;
56285;SDS011;42191;47.562;9.686;2023-06-04T06:41:58;36.50;;;34.00;;
56285;SDS011;42191;47.562;9.686;2023-06-04T06:44:24;34.65;;;32.22;;
56285;SDS011;42191;47.562;9.686;2023-06-04T06:46:50;37.78;;;35.08;;
56285;SDS011;42191;47.562;9.686;2023-06-04T06:49:16;36.97;;;34.38;;
56285;SDS011;42191;47.562;9.686;2023-06-04T06:51:42;38.15;;;35.45;;
56285;SDS011;42191;47.562;9.686;2023-06-04T06:54:09;37.53;;;35.00;;
56285;SDS011;42191;47.562;9.686;2023-06-04T06:56:35;37.58;;;34.58;;
56285;SDS011;42191;47.562;9.686;2023-06-04T06:59:01;37.60;;;35.03;;
56285;SDS011;42191;47.562;9.686;2023-06-04T07:01:27;39.03;;;36.30;;
56285;SDS011;42191;47.562;9.686;2023-06-04T07:03:53;36.75;;;34.20;;
56285;SDS011;42191;47.562;9.686;2023-06-04T07:06:19;37.38;;;34.83;;
56285;SDS011;42191;47.562;9.686;2023-06-04T07:08:45;37.13;;;34.58;;
56285;SDS011;42191;47.562;9.686;2023-06-04T07:11:13;38.13;;;35.53;;
56285;SDS011;42191;47.562;9.686;2023-06-04T07:13:39;35.83;;;33.22;;
56285;SDS011;42191;47.562;9.686;2023-06-04T07:16:05;35.33;;;32.92;;
56285;SDS011;42191;47.562;9.686;2023-06-04T07:18:31;38.15;;;35.47;;
56285;SDS011;42191;47.562;9.686;2023-06-04T07:20:58;35.53;;;33.13;;
56285;SDS011;42191;47.562;9.686;2023-06-04T07:23:24;36.42;;;34.03;;
56285;SDS011;42191;47.562;9.686;2023-06-04T07:25:50;36.90;;;34.25;;
56285;SDS011;42191;47.562;9.686;2023-06-04T07:28:16;37.33;;;34.78;;
56285;SDS011;42191;47.562;9.686;2023-06-04T07:30:44;35.85;;;33.38;;
56285;SDS011;42191;47.562;9.686;2023-06-04T07:33:11;36.40;;;33.72;;
56285;SDS011;42191;47.562;9.686;2023-06-04T07:35:37;36.55;;;33.97;;
56285;SDS011;42191;47.562;9.686;2023-06-04T07:38:03;38.10;;;35.40;;
56285;SDS011;42191;47.562;9.686;2023-06-04T07:40:29;36.17;;;33.70;;
56285;SDS011;42191;47.562;9.686;2023-06-04T07:42:55;37.67;;;34.97;;
56285;SDS011;42191;47.562;9.686;2023-06-04T07:45:21;36.63;;;34.00;;
56285;SDS011;42191;47.562;9.686;2023-06-04T07:47:48;35.97;;;33.47;;
56285;SDS011;42191;47.562;9.686;2023-06-04T07:50:14;37.08;;;34.45;;
56285;SDS011;42191;47.562;9.686;2023-06-04T07:52:40;38.42;;;35.72;;
56285;SDS011;42191;47.562;9.686;2023-06-04T07:55:06;36.65;;;34.15;;
56285;SDS011;42191;47.562;9.686;2023-06-04T07:57:33;37.70;;;35.15;;
56285;SDS011;42191;47.562;9.686;2023-06-04T08:00:00;38.33;;;35.60;;
56285;SDS011;42191;47.562;9.686;2023-06-04T08:02:29;36.80;;;34.25;;
56285;SDS011;42191;47.562;9.686;2023-06-04T08:04:55;36.10;;;33.63;;
56285;SDS011;42191;47.562;9.686;2023-06-04T08:07:21;36.28;;;33.78;;
56285;SDS011;42191;47.562;9.686;2023-06-04T08:09:47;38.92;;;36.05;;
56285;SDS011;42191;47.562;9.686;2023-06-04T08:12:14;38.88;;;36.20;;
56285;SDS011;42191;47.562;9.686;2023-06-04T08:14:41;39.13;;;35.88;;
56285;SDS011;42191;47.562;9.686;2023-06-04T08:17:07;38.33;;;35.65;;
56285;SDS011;42191;47.562;9.686;2023-06-04T08:19:33;37.78;;;35.08;;
56285;SDS011;42191;47.562;9.686;2023-06-04T08:21:59;38.97;;;36.03;;
56285;SDS011;42191;47.562;9.686;2023-06-04T08:24:25;39.25;;;36.28;;
56285;SDS011;42191;47.562;9.686;2023-06-04T08:26:51;37.88;;;35.15;;
56285;SDS011;42191;47.562;9.686;2023-06-04T08:29:17;38.05;;;35.47;;
56285;SDS011;42191;47.562;9.686;2023-06-04T08:31:43;38.10;;;35.42;;
56285;SDS011;42191;47.562;9.686;2023-06-04T08:34:10;37.28;;;34.38;;
56285;SDS011;42191;47.562;9.686;2023-06-04T08:36:36;38.05;;;35.30;;
56285;SDS011;42191;47.562;9.686;2023-06-04T08:39:02;39.20;;;36.50;;
56285;SDS011;42191;47.562;9.686;2023-06-04T08:41:29;37.28;;;34.38;;
56285;SDS011;42191;47.562;9.686;2023-06-04T08:44:08;38.67;;;35.88;;
56285;SDS011;42191;47.562;9.686;2023-06-04T08:46:38;39.55;;;36.70;;
56285;SDS011;42191;47.562;9.686;2023-06-04T08:49:05;39.60;;;36.67;;
56285;SDS011;42191;47.562;9.686;2023-06-04T08:51:33;38.83;;;36.03;;
56285;SDS011;42191;47.562;9.686;2023-06-04T08:54:02;37.45;;;34.72;;
56285;SDS011;42191;47.562;9.686;2023-06-04T08:56:33;37.20;;;34.50;;
56285;SDS011;42191;47.562;9.686;2023-06-04T08:59:04;39.35;;;36.60;;
56285;SDS011;42191;47.562;9.686;2023-06-04T09:01:34;38.90;;;35.90;;
56285;SDS011;42191;47.562;9.686;2023-06-04T09:04:03;38.75;;;36.00;;
56285;SDS011;42191;47.562;9.686;2023-06-04T09:06:31;37.83;;;35.22;;
56285;SDS011;42191;47.562;9.686;2023-06-04T09:08:58;38.10;;;35.40;;
56285;SDS011;42191;47.562;9.686;2023-06-04T09:11:39;38.78;;;36.08;;
56285;SDS011;42191;47.562;9.686;2023-06-04T09:14:14;38.80;;;36.00;;
56285;SDS011;42191;47.562;9.686;2023-06-04T09:16:45;37.72;;;35.05;;
56285;SDS011;42191;47.562;9.686;2023-06-04T09:19:12;37.47;;;34.67;;
56285;SDS011;42191;47.562;9.686;2023-06-04T09:21:45;36.13;;;33.63;;
56285;SDS011;42191;47.562;9.686;2023-06-04T09:24:16;37.75;;;35.10;;
56285;SDS011;42191;47.562;9.686;2023-06-04T09:26:43;36.10;;;33.60;;
56285;SDS011;42191;47.562;9.686;2023-06-04T09:29:10;39.38;;;36.47;;
56285;SDS011;42191;47.562;9.686;2023-06-04T09:31:36;37.70;;;34.40;;
56285;SDS011;42191;47.562;9.686;2023-06-04T09:34:03;38.28;;;35.58;;
56285;SDS011;42191;47.562;9.686;2023-06-04T09:36:30;37.45;;;34.70;;
56285;SDS011;42191;47.562;9.686;2023-06-04T09:38:57;37.55;;;34.75;;
56285;SDS011;42191;47.562;9.686;2023-06-04T09:41:23;36.97;;;34.40;;
56285;SDS011;42191;47.562;9.686;2023-06-04T09:43:51;37.22;;;34.47;;
56285;SDS011;42191;47.562;9.686;2023-06-04T09:46:24;37.42;;;34.70;;
56285;SDS011;42191;47.562;9.686;2023-06-04T09:48:58;37.00;;;34.28;;
56285;SDS011;42191;47.562;9.686;2023-06-04T09:51:26;38.78;;;36.03;;
56285;SDS011;42191;47.562;9.686;2023-06-04T09:53:54;37.25;;;34.45;;
56285;SDS011;42191;47.562;9.686;2023-06-04T09:56:21;37.22;;;34.33;;
56285;SDS011;42191;47.562;9.686;2023-06-04T09:58:48;37.70;;;34.90;;
56285;SDS011;42191;47.562;9.686;2023-06-04T10:01:18;35.95;;;33.45;;
56285;SDS011;42191;47.562;9.686;2023-06-04T10:03:46;37.65;;;35.05;;
56285;SDS011;42191;47.562;9.686;2023-06-04T10:06:14;38.30;;;35.30;;
56285;SDS011;42191;47.562;9.686;2023-06-04T10:08:41;37.67;;;34.95;;
56285;SDS011;42191;47.562;9.686;2023-06-04T10:11:08;37.67;;;34.88;;
56285;SDS011;42191;47.562;9.686;2023-06-04T10:13:41;37.25;;;34.42;;
56285;SDS011;42191;47.562;9.686;2023-06-04T10:16:15;37.22;;;34.58;;
56285;SDS011;42191;47.562;9.686;2023-06-04T10:18:41;36.83;;;33.92;;
56285;SDS011;42191;47.562;9.686;2023-06-04T10:21:09;36.42;;;33.63;;
56285;SDS011;42191;47.562;9.686;2023-06-04T10:23:38;37.60;;;34.85;;
56285;SDS011;42191;47.562;9.686;2023-06-04T10:26:05;35.88;;;33.38;;
56285;SDS011;42191;47.562;9.686;2023-06-04T10:28:32;36.30;;;33.70;;
56285;SDS011;42191;47.562;9.686;2023-06-04T10:30:59;37.50;;;34.70;;
56285;SDS011;42191;47.562;9.686;2023-06-04T10:33:26;36.63;;;34.13;;
56285;SDS011;42191;47.562;9.686;2023-06-04T10:35:53;36.28;;;33.60;;
56285;SDS011;42191;47.562;9.686;2023-06-04T10:38:23;35.33;;;32.88;;
56285;SDS011;42191;47.562;9.686;2023-06-04T10:40:49;34.88;;;32.28;;
56285;SDS011;42191;47.562;9.686;2023-06-04T10:43:15;34.95;;;32.30;;
56285;SDS011;42191;47.562;9.686;2023-06-04T10:45:42;35.97;;;33.38;;
56285;SDS011;42191;47.562;9.686;2023-06-04T10:48:08;36.20;;;33.70;;
56285;SDS011;42191;47.562;9.686;2023-06-04T10:50:47;36.33;;;33.30;;
56285;SDS011;42191;47.562;9.686;2023-06-04T10:53:14;34.88;;;32.28;;
56285;SDS011;42191;47.562;9.686;2023-06-04T10:55:45;36.38;;;33.53;;
56285;SDS011;42191;47.562;9.686;2023-06-04T10:58:12;34.38;;;31.90;;
56285;SDS011;42191;47.562;9.686;2023-06-04T11:00:39;34.25;;;31.95;;
56285;SDS011;42191;47.562;9.686;2023-06-04T11:03:07;35.22;;;32.33;;
56285;SDS011;42191;47.562;9.686;2023-06-04T11:05:37;33.97;;;31.35;;
56285;SDS011;42191;47.562;9.686;2023-06-04T11:08:11;33.17;;;30.85;;
56285;SDS011;42191;47.562;9.686;2023-06-04T11:10:39;34.05;;;31.65;;
56285;SDS011;42191;47.562;9.686;2023-06-04T11:13:09;33.33;;;30.88;;
56285;SDS011;42191;47.562;9.686;2023-06-04T11:18:06;33.13;;;30.92;;
56285;SDS011;42191;47.562;9.686;2023-06-04T11:20:32;32.58;;;30.25;;
56285;SDS011;42191;47.562;9.686;2023-06-04T11:22:58;33.35;;;31.02;;
56285;SDS011;42191;47.562;9.686;2023-06-04T11:25:28;30.55;;;28.52;;
56285;SDS011;42191;47.562;9.686;2023-06-04T11:27:56;32.88;;;30.67;;
56285;SDS011;42191;47.562;9.686;2023-06-04T11:30:23;31.23;;;29.13;;
56285;SDS011;42191;47.562;9.686;2023-06-04T11:32:49;31.80;;;29.70;;
56285;SDS011;42191;47.562;9.686;2023-06-04T11:35:24;30.27;;;28.17;;
56285;SDS011;42191;47.562;9.686;2023-06-04T11:37:53;32.03;;;29.92;;
56285;SDS011;42191;47.562;9.686;2023-06-04T11:40:20;29.45;;;27.52;;
56285;SDS011;42191;47.562;9.686;2023-06-04T11:42:47;31.77;;;29.48;;
56285;SDS011;42191;47.562;9.686;2023-06-04T11:45:14;31.33;;;29.02;;
56285;SDS011;42191;47.562;9.686;2023-06-04T11:47:44;31.67;;;29.38;;
56285;SDS011;42191;47.562;9.686;2023-06-04T11:50:20;31.02;;;28.73;;
56285;SDS011;42191;47.562;9.686;2023-06-04T11:52:48;31.00;;;28.83;;
56285;SDS011;42191;47.562;9.686;2023-06-04T11:55:14;30.73;;;28.70;;
56285;SDS011;42191;47.562;9.686;2023-06-04T11:57:45;29.88;;;27.77;;
56285;SDS011;42191;47.562;9.686;2023-06-04T12:00:11;30.30;;;28.25;;
56285;SDS011;42191;47.562;9.686;2023-06-04T12:02:47;29.52;;;27.45;;
56285;SDS011;42191;47.562;9.686;2023-06-04T12:05:18;29.88;;;27.98;;
56285;SDS011;42191;47.562;9.686;2023-06-04T12:07:46;29.63;;;27.63;;
56285;SDS011;42191;47.562;9.686;2023-06-04T12:10:15;30.20;;;28.20;;
56285;SDS011;42191;47.562;9.686;2023-06-04T12:12:45;28.92;;;27.02;;
56285;SDS011;42191;47.562;9.686;2023-06-04T12:15:12;29.75;;;27.58;;
56285;SDS011;42191;47.562;9.686;2023-06-04T12:17:53;30.00;;;27.92;;
56285;SDS011;42191;47.562;9.686;2023-06-04T12:20:39;28.98;;;27.08;;
56285;SDS011;42191;47.562;9.686;2023-06-04T12:23:06;29.40;;;27.50;;
56285;SDS011;42191;47.562;9.686;2023-06-04T12:25:33;29.13;;;27.20;;
56285;SDS011;42191;47.562;9.686;2023-06-04T12:28:02;29.50;;;27.50;;
56285;SDS011;42191;47.562;9.686;2023-06-04T12:30:38;29.25;;;27.25;;
56285;SDS011;42191;47.562;9.686;2023-06-04T12:33:05;29.85;;;27.77;;
56285;SDS011;42191;47.562;9.686;2023-06-04T12:35:31;28.38;;;26.48;;
56285;SDS011;42191;47.562;9.686;2023-06-04T12:37:58;30.40;;;28.23;;
56285;SDS011;42191;47.562;9.686;2023-06-04T12:40:25;29.80;;;27.65;;
56285;SDS011;42191;47.562;9.686;2023-06-04T12:42:51;30.05;;;28.13;;
56285;SDS011;42191;47.562;9.686;2023-06-04T12:45:17;28.80;;;26.92;;
56285;SDS011;42191;47.562;9.686;2023-06-04T12:47:43;28.92;;;26.85;;
56285;SDS011;42191;47.562;9.686;2023-06-04T12:50:09;30.27;;;28.38;;
56285;SDS011;42191;47.562;9.686;2023-06-04T12:52:36;30.45;;;28.30;;
56285;SDS011;42191;47.562;9.686;2023-06-04T12:55:02;28.80;;;26.73;;
56285;SDS011;42191;47.562;9.686;2023-06-04T12:57:28;29.42;;;27.40;;
56285;SDS011;42191;47.562;9.686;2023-06-04T12:59:54;30.75;;;28.38;;
56285;SDS011;42191;47.562;9.686;2023-06-04T13:02:22;29.83;;;27.80;;
56285;SDS011;42191;47.562;9.686;2023-06-04T13:04:48;29.85;;;27.83;;
56285;SDS011;42191;47.562;9.686;2023-06-04T13:07:18;29.30;;;27.30;;
56285;SDS011;42191;47.562;9.686;2023-06-04T13:09:44;29.80;;;27.58;;
56285;SDS011;42191;47.562;9.686;2023-06-04T13:12:10;30.52;;;28.30;;
56285;SDS011;42191;47.562;9.686;2023-06-04T13:14:36;29.17;;;27.27;;
56285;SDS011;42191;47.562;9.686;2023-06-04T13:17:02;27.45;;;25.23;;
56285;SDS011;42191;47.562;9.686;2023-06-04T13:19:28;28.40;;;26.42;;
56285;SDS011;42191;47.562;9.686;2023-06-04T13:21:54;27.15;;;25.17;;
56285;SDS011;42191;47.562;9.686;2023-06-04T13:24:22;26.83;;;24.92;;
56285;SDS011;42191;47.562;9.686;2023-06-04T13:26:48;28.15;;;26.08;;
56285;SDS011;42191;47.562;9.686;2023-06-04T13:29:14;26.88;;;24.98;;
56285;SDS011;42191;47.562;9.686;2023-06-04T13:31:41;27.70;;;25.60;;
56285;SDS011;42191;47.562;9.686;2023-06-04T13:34:07;25.73;;;24.02;;
56285;SDS011;42191;47.562;9.686;2023-06-04T13:36:33;26.83;;;25.02;;
56285;SDS011;42191;47.562;9.686;2023-06-04T13:39:00;26.65;;;24.85;;
56285;SDS011;42191;47.562;9.686;2023-06-04T13:41:26;26.48;;;24.75;;
56285;SDS011;42191;47.562;9.686;2023-06-04T13:43:52;27.30;;;25.35;;
56285;SDS011;42191;47.562;9.686;2023-06-04T13:46:18;26.92;;;24.92;;
56285;SDS011;42191;47.562;9.686;2023-06-04T13:48:44;25.52;;;23.90;;
56285;SDS011;42191;47.562;9.686;2023-06-04T13:51:10;25.83;;;24.02;;
56285;SDS011;42191;47.562;9.686;2023-06-04T13:53:37;26.08;;;24.23;;
56285;SDS011;42191;47.562;9.686;2023-06-04T13:56:03;24.70;;;23.08;;
56285;SDS011;42191;47.562;9.686;2023-06-04T13:58:29;24.30;;;22.70;;
56285;SDS011;42191;47.562;9.686;2023-06-04T14:00:55;24.48;;;22.88;;
56285;SDS011;42191;47.562;9.686;2023-06-04T14:03:21;24.77;;;23.08;;
56285;SDS011;42191;47.562;9.686;2023-06-04T14:05:47;24.42;;;22.63;;
56285;SDS011;42191;47.562;9.686;2023-06-04T14:08:13;23.52;;;21.90;;
56285;SDS011;42191;47.562;9.686;2023-06-04T14:10:39;24.80;;;23.20;;
56285;SDS011;42191;47.562;9.686;2023-06-04T14:13:06;24.95;;;23.08;;
56285;SDS011;42191;47.562;9.686;2023-06-04T14:15:33;24.67;;;22.95;;
56285;SDS011;42191;47.562;9.686;2023-06-04T14:17:59;25.13;;;23.33;;
56285;SDS011;42191;47.562;9.686;2023-06-04T14:20:26;24.25;;;22.75;;
56285;SDS011;42191;47.562;9.686;2023-06-04T14:22:52;23.98;;;22.15;;
56285;SDS011;42191;47.562;9.686;2023-06-04T14:25:18;25.23;;;23.50;;